sensor_id;sensor_type;location;lat;lon;timestamp;P1;durP1;ratioP1;P2;durP2;ratioP2
9270;SDS011;4673;53.458;9.940;2023-05-02T00:01:49;7.80;;;7.80;;
9270;SDS011;4673;53.458;9.940;2023-05-02T00:04:15;8.60;;;8.60;;
9270;SDS011;4673;53.458;9.940;2023-05-02T00:06:41;9.00;;;9.00;;
9270;SDS011;4673;53.458;9.940;2023-05-02T00:09:07;8.80;;;8.80;;
9270;SDS011;4673;53.458;9.940;2023-05-02T00:11:34;9.33;;;9.23;;
9270;SDS011;4673;53.458;9.940;2023-05-02T00:13:59;9.97;;;9.97;;
9270;SDS011;4673;53.458;9.940;2023-05-02T00:16:25;10.03;;;9.97;;
9270;SDS011;4673;53.458;9.940;2023-05-02T00:18:50;9.47;;;9.47;;
9270;SDS011;4673;53.458;9.940;2023-05-02T00:21:16;10.00;;;9.90;;
9270;SDS011;4673;53.458;9.940;2023-05-02T00:23:42;10.57;;;10.53;;
9270;SDS011;4673;53.458;9.940;2023-05-02T00:26:08;11.13;;;11.13;;
9270;SDS011;4673;53.458;9.940;2023-05-02T00:28:34;12.60;;;12.50;;
9270;SDS011;4673;53.458;9.940;2023-05-02T00:30:59;12.73;;;12.63;;
9270;SDS011;4673;53.458;9.940;2023-05-02T00:33:25;13.00;;;12.90;;
9270;SDS011;4673;53.458;9.940;2023-05-02T00:35:51;11.63;;;11.53;;
9270;SDS011;4673;53.458;9.940;2023-05-02T00:38:16;13.43;;;13.33;;
9270;SDS011;4673;53.458;9.940;2023-05-02T00:40:45;13.63;;;13.53;;
9270;SDS011;4673;53.458;9.940;2023-05-02T00:43:13;12.37;;;12.27;;
9270;SDS011;4673;53.458;9.940;2023-05-02T00:45:39;14.83;;;14.73;;
9270;SDS011;4673;53.458;9.940;2023-05-02T00:48:07;13.80;;;13.70;;
9270;SDS011;4673;53.458;9.940;2023-05-02T00:50:36;13.90;;;13.80;;
9270;SDS011;4673;53.458;9.940;2023-05-02T00:53:07;13.77;;;13.67;;
9270;SDS011;4673;53.458;9.940;2023-05-02T00:55:33;13.37;;;13.27;;
9270;SDS011;4673;53.458;9.940;2023-05-02T00:58:00;13.07;;;12.97;;
9270;SDS011;4673;53.458;9.940;2023-05-02T01:03:16;12.77;;;12.67;;
9270;SDS011;4673;53.458;9.940;2023-05-02T01:06:05;15.03;;;14.93;;
9270;SDS011;4673;53.458;9.940;2023-05-02T01:11:47;13.90;;;13.80;;
9270;SDS011;4673;53.458;9.940;2023-05-02T01:14:13;11.67;;;11.60;;
9270;SDS011;4673;53.458;9.940;2023-05-02T01:16:39;14.23;;;14.13;;
9270;SDS011;4673;53.458;9.940;2023-05-02T01:19:11;13.80;;;13.70;;
9270;SDS011;4673;53.458;9.940;2023-05-02T01:22:01;12.83;;;12.73;;
9270;SDS011;4673;53.458;9.940;2023-05-02T01:27:29;15.20;;;15.10;;
9270;SDS011;4673;53.458;9.940;2023-05-02T01:30:07;13.57;;;13.47;;
9270;SDS011;4673;53.458;9.940;2023-05-02T01:32:36;13.00;;;12.90;;
9270;SDS011;4673;53.458;9.940;2023-05-02T01:35:05;12.87;;;12.77;;
9270;SDS011;4673;53.458;9.940;2023-05-02T01:37:32;13.07;;;12.97;;
9270;SDS011;4673;53.458;9.940;2023-05-02T01:40:00;12.10;;;12.00;;
9270;SDS011;4673;53.458;9.940;2023-05-02T01:42:28;9.37;;;9.37;;
9270;SDS011;4673;53.458;9.940;2023-05-02T01:44:55;9.63;;;9.63;;
9270;SDS011;4673;53.458;9.940;2023-05-02T01:47:23;9.43;;;9.43;;
9270;SDS011;4673;53.458;9.940;2023-05-02T01:49:50;8.90;;;8.90;;
9270;SDS011;4673;53.458;9.940;2023-05-02T01:52:16;8.47;;;8.47;;
9270;SDS011;4673;53.458;9.940;2023-05-02T01:54:46;7.47;;;7.47;;
9270;SDS011;4673;53.458;9.940;2023-05-02T01:57:14;8.70;;;8.70;;
9270;SDS011;4673;53.458;9.940;2023-05-02T01:59:42;9.00;;;9.00;;
9270;SDS011;4673;53.458;9.940;2023-05-02T02:02:08;8.03;;;8.03;;
9270;SDS011;4673;53.458;9.940;2023-05-02T02:04:37;9.73;;;9.63;;
9270;SDS011;4673;53.458;9.940;2023-05-02T02:07:07;8.10;;;8.10;;
9270;SDS011;4673;53.458;9.940;2023-05-02T02:09:36;8.53;;;8.53;;
9270;SDS011;4673;53.458;9.940;2023-05-02T02:12:16;8.63;;;8.63;;
9270;SDS011;4673;53.458;9.940;2023-05-02T02:14:56;8.60;;;8.50;;
9270;SDS011;4673;53.458;9.940;2023-05-02T02:17:31;8.77;;;8.77;;
9270;SDS011;4673;53.458;9.940;2023-05-02T02:20:02;8.27;;;8.27;;
9270;SDS011;4673;53.458;9.940;2023-05-02T02:22:33;8.73;;;8.63;;
9270;SDS011;4673;53.458;9.940;2023-05-02T02:25:02;8.27;;;8.17;;
9270;SDS011;4673;53.458;9.940;2023-05-02T02:27:33;7.97;;;7.97;;
9270;SDS011;4673;53.458;9.940;2023-05-02T02:30:00;8.57;;;8.57;;
9270;SDS011;4673;53.458;9.940;2023-05-02T02:32:25;8.03;;;8.03;;
9270;SDS011;4673;53.458;9.940;2023-05-02T02:34:51;8.00;;;8.00;;
9270;SDS011;4673;53.458;9.940;2023-05-02T02:37:18;7.17;;;7.17;;
9270;SDS011;4673;53.458;9.940;2023-05-02T02:42:15;7.50;;;7.50;;
9270;SDS011;4673;53.458;9.940;2023-05-02T02:47:26;5.80;;;5.80;;
9270;SDS011;4673;53.458;9.940;2023-05-02T02:55:16;4.70;;;4.70;;
9270;SDS011;4673;53.458;9.940;2023-05-02T03:00:58;6.27;;;6.27;;
9270;SDS011;4673;53.458;9.940;2023-05-02T03:03:28;7.03;;;7.03;;
9270;SDS011;4673;53.458;9.940;2023-05-02T03:05:56;7.57;;;7.57;;
9270;SDS011;4673;53.458;9.940;2023-05-02T03:08:22;6.63;;;6.63;;
9270;SDS011;4673;53.458;9.940;2023-05-02T03:10:48;5.83;;;5.83;;
9270;SDS011;4673;53.458;9.940;2023-05-02T03:13:14;5.77;;;5.77;;
9270;SDS011;4673;53.458;9.940;2023-05-02T03:18:22;7.73;;;7.63;;
9270;SDS011;4673;53.458;9.940;2023-05-02T03:20:48;6.87;;;6.87;;
9270;SDS011;4673;53.458;9.940;2023-05-02T03:23:13;7.83;;;7.73;;
9270;SDS011;4673;53.458;9.940;2023-05-02T03:25:39;7.93;;;7.87;;
9270;SDS011;4673;53.458;9.940;2023-05-02T03:28:04;7.37;;;7.37;;
9270;SDS011;4673;53.458;9.940;2023-05-02T03:30:30;7.27;;;7.17;;
9270;SDS011;4673;53.458;9.940;2023-05-02T03:32:56;6.63;;;6.53;;
9270;SDS011;4673;53.458;9.940;2023-05-02T03:35:21;5.10;;;5.10;;
9270;SDS011;4673;53.458;9.940;2023-05-02T03:37:47;7.60;;;7.50;;
9270;SDS011;4673;53.458;9.940;2023-05-02T03:40:13;8.60;;;8.50;;
9270;SDS011;4673;53.458;9.940;2023-05-02T03:42:40;7.60;;;7.60;;
9270;SDS011;4673;53.458;9.940;2023-05-02T03:45:06;6.97;;;6.87;;
9270;SDS011;4673;53.458;9.940;2023-05-02T03:47:33;6.90;;;6.80;;
9270;SDS011;4673;53.458;9.940;2023-05-02T03:49:59;5.70;;;5.70;;
9270;SDS011;4673;53.458;9.940;2023-05-02T03:52:25;5.60;;;5.50;;
9270;SDS011;4673;53.458;9.940;2023-05-02T03:54:50;5.93;;;5.90;;
9270;SDS011;4673;53.458;9.940;2023-05-02T03:57:17;6.57;;;6.47;;
9270;SDS011;4673;53.458;9.940;2023-05-02T03:59:42;5.83;;;5.73;;
9270;SDS011;4673;53.458;9.940;2023-05-02T04:02:10;5.23;;;5.23;;
9270;SDS011;4673;53.458;9.940;2023-05-02T04:04:36;5.77;;;5.67;;
9270;SDS011;4673;53.458;9.940;2023-05-02T04:07:02;5.03;;;4.93;;
9270;SDS011;4673;53.458;9.940;2023-05-02T04:09:28;5.63;;;5.60;;
9270;SDS011;4673;53.458;9.940;2023-05-02T04:11:54;5.23;;;5.23;;
9270;SDS011;4673;53.458;9.940;2023-05-02T04:14:20;4.97;;;4.97;;
9270;SDS011;4673;53.458;9.940;2023-05-02T04:16:46;3.90;;;3.90;;
9270;SDS011;4673;53.458;9.940;2023-05-02T04:19:16;4.27;;;4.20;;
9270;SDS011;4673;53.458;9.940;2023-05-02T04:21:42;5.47;;;5.47;;
9270;SDS011;4673;53.458;9.940;2023-05-02T04:24:09;5.50;;;5.40;;
9270;SDS011;4673;53.458;9.940;2023-05-02T04:26:34;4.17;;;4.17;;
9270;SDS011;4673;53.458;9.940;2023-05-02T04:29:00;4.50;;;4.50;;
9270;SDS011;4673;53.458;9.940;2023-05-02T04:31:26;4.20;;;4.20;;
9270;SDS011;4673;53.458;9.940;2023-05-02T04:33:52;4.53;;;4.53;;
9270;SDS011;4673;53.458;9.940;2023-05-02T04:36:18;4.03;;;4.03;;
9270;SDS011;4673;53.458;9.940;2023-05-02T04:38:44;4.47;;;4.47;;
9270;SDS011;4673;53.458;9.940;2023-05-02T04:41:09;4.90;;;4.83;;
9270;SDS011;4673;53.458;9.940;2023-05-02T04:43:36;3.90;;;3.90;;
9270;SDS011;4673;53.458;9.940;2023-05-02T04:46:02;4.27;;;4.17;;
9270;SDS011;4673;53.458;9.940;2023-05-02T04:48:27;4.27;;;4.27;;
9270;SDS011;4673;53.458;9.940;2023-05-02T04:50:53;4.30;;;4.20;;
9270;SDS011;4673;53.458;9.940;2023-05-02T04:53:22;4.70;;;4.70;;
9270;SDS011;4673;53.458;9.940;2023-05-02T04:55:48;3.50;;;3.50;;
9270;SDS011;4673;53.458;9.940;2023-05-02T04:58:13;2.90;;;2.90;;
9270;SDS011;4673;53.458;9.940;2023-05-02T05:00:39;3.10;;;3.10;;
9270;SDS011;4673;53.458;9.940;2023-05-02T05:03:05;3.40;;;3.40;;
9270;SDS011;4673;53.458;9.940;2023-05-02T05:05:31;3.90;;;3.90;;
9270;SDS011;4673;53.458;9.940;2023-05-02T05:07:57;4.03;;;4.03;;
9270;SDS011;4673;53.458;9.940;2023-05-02T05:10:22;4.20;;;4.20;;
9270;SDS011;4673;53.458;9.940;2023-05-02T05:12:48;3.00;;;3.00;;
9270;SDS011;4673;53.458;9.940;2023-05-02T05:15:14;3.90;;;3.90;;
9270;SDS011;4673;53.458;9.940;2023-05-02T05:17:40;3.30;;;3.30;;
9270;SDS011;4673;53.458;9.940;2023-05-02T05:20:06;3.83;;;3.83;;
9270;SDS011;4673;53.458;9.940;2023-05-02T05:22:37;3.87;;;3.87;;
9270;SDS011;4673;53.458;9.940;2023-05-02T05:25:04;3.63;;;3.63;;
9270;SDS011;4673;53.458;9.940;2023-05-02T05:27:30;3.37;;;3.37;;
9270;SDS011;4673;53.458;9.940;2023-05-02T05:29:56;3.70;;;3.70;;
9270;SDS011;4673;53.458;9.940;2023-05-02T05:32:22;3.90;;;3.90;;
9270;SDS011;4673;53.458;9.940;2023-05-02T05:34:51;3.80;;;3.80;;
9270;SDS011;4673;53.458;9.940;2023-05-02T05:37:18;4.63;;;4.53;;
9270;SDS011;4673;53.458;9.940;2023-05-02T05:39:44;3.00;;;3.00;;
9270;SDS011;4673;53.458;9.940;2023-05-02T05:42:09;5.27;;;5.27;;
9270;SDS011;4673;53.458;9.940;2023-05-02T05:44:36;3.67;;;3.67;;
9270;SDS011;4673;53.458;9.940;2023-05-02T05:47:02;3.43;;;3.43;;
9270;SDS011;4673;53.458;9.940;2023-05-02T05:49:27;3.27;;;3.27;;
9270;SDS011;4673;53.458;9.940;2023-05-02T05:51:53;3.93;;;3.93;;
9270;SDS011;4673;53.458;9.940;2023-05-02T05:54:19;3.57;;;3.57;;
9270;SDS011;4673;53.458;9.940;2023-05-02T05:56:44;2.77;;;2.77;;
9270;SDS011;4673;53.458;9.940;2023-05-02T05:59:10;2.50;;;2.50;;
9270;SDS011;4673;53.458;9.940;2023-05-02T06:01:36;2.73;;;2.73;;
9270;SDS011;4673;53.458;9.940;2023-05-02T06:04:02;3.60;;;3.60;;
9270;SDS011;4673;53.458;9.940;2023-05-02T06:06:29;3.40;;;3.40;;
9270;SDS011;4673;53.458;9.940;2023-05-02T06:08:56;3.80;;;3.80;;
9270;SDS011;4673;53.458;9.940;2023-05-02T06:11:22;3.47;;;3.47;;
9270;SDS011;4673;53.458;9.940;2023-05-02T06:13:48;4.77;;;4.67;;
9270;SDS011;4673;53.458;9.940;2023-05-02T06:16:17;3.93;;;3.93;;
9270;SDS011;4673;53.458;9.940;2023-05-02T06:18:43;3.07;;;3.07;;
9270;SDS011;4673;53.458;9.940;2023-05-02T06:21:09;3.30;;;3.30;;
9270;SDS011;4673;53.458;9.940;2023-05-02T06:23:34;3.40;;;3.40;;
9270;SDS011;4673;53.458;9.940;2023-05-02T06:26:01;3.17;;;3.17;;
9270;SDS011;4673;53.458;9.940;2023-05-02T06:28:28;2.83;;;2.83;;
9270;SDS011;4673;53.458;9.940;2023-05-02T06:30:58;2.37;;;2.37;;
9270;SDS011;4673;53.458;9.940;2023-05-02T06:33:28;3.07;;;3.07;;
9270;SDS011;4673;53.458;9.940;2023-05-02T06:35:54;2.20;;;2.20;;
9270;SDS011;4673;53.458;9.940;2023-05-02T06:38:20;2.47;;;2.47;;
9270;SDS011;4673;53.458;9.940;2023-05-02T06:40:47;2.50;;;2.50;;
9270;SDS011;4673;53.458;9.940;2023-05-02T06:43:13;2.70;;;2.70;;
9270;SDS011;4673;53.458;9.940;2023-05-02T06:45:39;1.97;;;1.97;;
9270;SDS011;4673;53.458;9.940;2023-05-02T06:48:05;2.20;;;2.20;;
9270;SDS011;4673;53.458;9.940;2023-05-02T06:50:31;2.63;;;2.63;;
9270;SDS011;4673;53.458;9.940;2023-05-02T06:52:57;2.93;;;2.93;;
9270;SDS011;4673;53.458;9.940;2023-05-02T06:55:23;2.30;;;2.30;;
9270;SDS011;4673;53.458;9.940;2023-05-02T06:57:49;2.43;;;2.43;;
9270;SDS011;4673;53.458;9.940;2023-05-02T07:00:15;3.53;;;3.53;;
9270;SDS011;4673;53.458;9.940;2023-05-02T07:02:42;2.10;;;2.10;;
9270;SDS011;4673;53.458;9.940;2023-05-02T07:05:09;2.33;;;2.33;;
9270;SDS011;4673;53.458;9.940;2023-05-02T07:07:35;2.30;;;2.30;;
9270;SDS011;4673;53.458;9.940;2023-05-02T07:10:01;2.57;;;2.57;;
9270;SDS011;4673;53.458;9.940;2023-05-02T07:12:27;2.10;;;2.10;;
9270;SDS011;4673;53.458;9.940;2023-05-02T07:14:53;1.90;;;1.90;;
9270;SDS011;4673;53.458;9.940;2023-05-02T07:17:18;1.97;;;1.97;;
9270;SDS011;4673;53.458;9.940;2023-05-02T07:19:45;2.10;;;2.10;;
9270;SDS011;4673;53.458;9.940;2023-05-02T07:22:11;1.97;;;1.97;;
9270;SDS011;4673;53.458;9.940;2023-05-02T07:24:40;2.13;;;2.13;;
9270;SDS011;4673;53.458;9.940;2023-05-02T07:27:09;1.97;;;1.97;;
9270;SDS011;4673;53.458;9.940;2023-05-02T07:29:37;1.53;;;1.53;;
9270;SDS011;4673;53.458;9.940;2023-05-02T07:32:03;2.20;;;2.20;;
9270;SDS011;4673;53.458;9.940;2023-05-02T07:34:29;2.17;;;2.17;;
9270;SDS011;4673;53.458;9.940;2023-05-02T07:36:55;3.13;;;3.13;;
9270;SDS011;4673;53.458;9.940;2023-05-02T07:39:21;1.80;;;1.80;;
9270;SDS011;4673;53.458;9.940;2023-05-02T07:41:51;1.50;;;1.50;;
9270;SDS011;4673;53.458;9.940;2023-05-02T07:44:17;2.03;;;2.03;;
9270;SDS011;4673;53.458;9.940;2023-05-02T07:46:43;1.73;;;1.73;;
9270;SDS011;4673;53.458;9.940;2023-05-02T07:49:08;1.63;;;1.63;;
9270;SDS011;4673;53.458;9.940;2023-05-02T07:51:34;1.33;;;1.33;;
9270;SDS011;4673;53.458;9.940;2023-05-02T07:54:00;1.97;;;1.97;;
9270;SDS011;4673;53.458;9.940;2023-05-02T07:56:26;0.97;;;0.97;;
9270;SDS011;4673;53.458;9.940;2023-05-02T07:58:52;1.80;;;1.80;;
9270;SDS011;4673;53.458;9.940;2023-05-02T08:01:17;1.33;;;1.33;;
9270;SDS011;4673;53.458;9.940;2023-05-02T08:03:43;1.73;;;1.73;;
9270;SDS011;4673;53.458;9.940;2023-05-02T08:06:09;2.33;;;2.33;;
9270;SDS011;4673;53.458;9.940;2023-05-02T08:08:35;1.70;;;1.70;;
9270;SDS011;4673;53.458;9.940;2023-05-02T08:11:01;2.23;;;2.23;;
9270;SDS011;4673;53.458;9.940;2023-05-02T08:13:27;1.73;;;1.73;;
9270;SDS011;4673;53.458;9.940;2023-05-02T08:15:53;2.00;;;2.00;;
9270;SDS011;4673;53.458;9.940;2023-05-02T08:18:25;1.70;;;1.70;;
9270;SDS011;4673;53.458;9.940;2023-05-02T08:20:51;1.47;;;1.47;;
9270;SDS011;4673;53.458;9.940;2023-05-02T08:23:19;1.77;;;1.77;;
9270;SDS011;4673;53.458;9.940;2023-05-02T08:25:45;2.17;;;2.17;;
9270;SDS011;4673;53.458;9.940;2023-05-02T08:28:11;1.83;;;1.83;;
9270;SDS011;4673;53.458;9.940;2023-05-02T08:30:37;1.47;;;1.47;;
9270;SDS011;4673;53.458;9.940;2023-05-02T08:33:02;2.70;;;2.70;;
9270;SDS011;4673;53.458;9.940;2023-05-02T08:35:28;1.60;;;1.60;;
9270;SDS011;4673;53.458;9.940;2023-05-02T08:37:54;1.57;;;1.57;;
9270;SDS011;4673;53.458;9.940;2023-05-02T08:40:20;2.13;;;2.13;;
9270;SDS011;4673;53.458;9.940;2023-05-02T08:42:47;1.70;;;1.70;;
9270;SDS011;4673;53.458;9.940;2023-05-02T08:45:13;1.33;;;1.33;;
9270;SDS011;4673;53.458;9.940;2023-05-02T08:47:39;1.17;;;1.17;;
9270;SDS011;4673;53.458;9.940;2023-05-02T08:50:05;1.50;;;1.50;;
9270;SDS011;4673;53.458;9.940;2023-05-02T08:52:34;1.50;;;1.50;;
9270;SDS011;4673;53.458;9.940;2023-05-02T08:55:01;1.57;;;1.57;;
9270;SDS011;4673;53.458;9.940;2023-05-02T08:57:28;1.37;;;1.37;;
9270;SDS011;4673;53.458;9.940;2023-05-02T08:59:55;1.90;;;1.90;;
9270;SDS011;4673;53.458;9.940;2023-05-02T09:05:20;1.07;;;1.07;;
9270;SDS011;4673;53.458;9.940;2023-05-02T09:07:49;1.43;;;1.43;;
9270;SDS011;4673;53.458;9.940;2023-05-02T09:10:16;1.60;;;1.60;;
9270;SDS011;4673;53.458;9.940;2023-05-02T09:12:41;1.50;;;1.50;;
9270;SDS011;4673;53.458;9.940;2023-05-02T09:15:08;2.23;;;2.23;;
9270;SDS011;4673;53.458;9.940;2023-05-02T09:17:53;1.70;;;1.70;;
9270;SDS011;4673;53.458;9.940;2023-05-02T09:20:19;1.10;;;1.10;;
9270;SDS011;4673;53.458;9.940;2023-05-02T09:22:49;1.30;;;1.30;;
9270;SDS011;4673;53.458;9.940;2023-05-02T09:25:15;1.27;;;1.27;;
9270;SDS011;4673;53.458;9.940;2023-05-02T09:27:51;1.43;;;1.43;;
9270;SDS011;4673;53.458;9.940;2023-05-02T09:32:46;0.90;;;0.90;;
9270;SDS011;4673;53.458;9.940;2023-05-02T09:35:15;1.03;;;1.03;;
9270;SDS011;4673;53.458;9.940;2023-05-02T09:37:48;1.83;;;1.83;;
9270;SDS011;4673;53.458;9.940;2023-05-02T09:40:17;1.37;;;1.37;;
9270;SDS011;4673;53.458;9.940;2023-05-02T09:42:43;1.90;;;1.90;;
9270;SDS011;4673;53.458;9.940;2023-05-02T09:45:17;1.50;;;1.50;;
9270;SDS011;4673;53.458;9.940;2023-05-02T09:47:47;1.40;;;1.40;;
9270;SDS011;4673;53.458;9.940;2023-05-02T09:53:05;1.40;;;1.40;;
9270;SDS011;4673;53.458;9.940;2023-05-02T09:55:34;1.33;;;1.33;;
9270;SDS011;4673;53.458;9.940;2023-05-02T09:58:00;1.73;;;1.73;;
9270;SDS011;4673;53.458;9.940;2023-05-02T10:00:39;1.60;;;1.60;;
9270;SDS011;4673;53.458;9.940;2023-05-02T10:03:06;2.03;;;2.03;;
9270;SDS011;4673;53.458;9.940;2023-05-02T10:05:33;1.50;;;1.50;;
9270;SDS011;4673;53.458;9.940;2023-05-02T10:08:05;1.50;;;1.50;;
9270;SDS011;4673;53.458;9.940;2023-05-02T10:10:34;1.70;;;1.70;;
9270;SDS011;4673;53.458;9.940;2023-05-02T10:13:05;1.10;;;1.10;;
9270;SDS011;4673;53.458;9.940;2023-05-02T10:15:32;1.40;;;1.40;;
9270;SDS011;4673;53.458;9.940;2023-05-02T10:18:02;1.73;;;1.73;;
9270;SDS011;4673;53.458;9.940;2023-05-02T10:20:37;1.40;;;1.40;;
9270;SDS011;4673;53.458;9.940;2023-05-02T10:23:14;1.33;;;1.33;;
9270;SDS011;4673;53.458;9.940;2023-05-02T10:25:42;1.10;;;1.10;;
9270;SDS011;4673;53.458;9.940;2023-05-02T10:28:08;1.67;;;1.67;;
9270;SDS011;4673;53.458;9.940;2023-05-02T10:30:34;0.83;;;0.83;;
9270;SDS011;4673;53.458;9.940;2023-05-02T10:33:00;1.07;;;1.07;;
9270;SDS011;4673;53.458;9.940;2023-05-02T10:35:27;1.20;;;1.20;;
9270;SDS011;4673;53.458;9.940;2023-05-02T10:37:54;1.30;;;1.30;;
9270;SDS011;4673;53.458;9.940;2023-05-02T10:40:21;2.27;;;2.27;;
9270;SDS011;4673;53.458;9.940;2023-05-02T10:42:47;1.13;;;1.13;;
9270;SDS011;4673;53.458;9.940;2023-05-02T10:50:47;1.40;;;1.40;;
9270;SDS011;4673;53.458;9.940;2023-05-02T10:58:50;1.50;;;1.50;;
9270;SDS011;4673;53.458;9.940;2023-05-02T11:03:53;1.20;;;1.20;;
9270;SDS011;4673;53.458;9.940;2023-05-02T11:06:23;1.30;;;1.30;;
9270;SDS011;4673;53.458;9.940;2023-05-02T11:08:50;1.30;;;1.30;;
9270;SDS011;4673;53.458;9.940;2023-05-02T11:14:07;0.80;;;0.80;;
9270;SDS011;4673;53.458;9.940;2023-05-02T11:19:27;1.40;;;1.40;;
9270;SDS011;4673;53.458;9.940;2023-05-02T11:24:52;1.30;;;1.30;;
9270;SDS011;4673;53.458;9.940;2023-05-02T11:30:09;1.23;;;1.23;;
9270;SDS011;4673;53.458;9.940;2023-05-02T11:35:22;1.10;;;1.10;;
9270;SDS011;4673;53.458;9.940;2023-05-02T11:37:55;1.17;;;1.17;;
9270;SDS011;4673;53.458;9.940;2023-05-02T11:40:26;1.57;;;1.57;;
9270;SDS011;4673;53.458;9.940;2023-05-02T11:42:52;1.83;;;1.83;;
9270;SDS011;4673;53.458;9.940;2023-05-02T11:45:18;1.10;;;1.10;;
9270;SDS011;4673;53.458;9.940;2023-05-02T11:47:45;1.50;;;1.50;;
9270;SDS011;4673;53.458;9.940;2023-05-02T11:50:12;1.40;;;1.40;;
9270;SDS011;4673;53.458;9.940;2023-05-02T11:52:39;1.60;;;1.60;;
9270;SDS011;4673;53.458;9.940;2023-05-02T11:55:12;1.20;;;1.20;;
9270;SDS011;4673;53.458;9.940;2023-05-02T11:57:39;1.43;;;1.43;;
9270;SDS011;4673;53.458;9.940;2023-05-02T12:00:05;1.13;;;1.13;;
9270;SDS011;4673;53.458;9.940;2023-05-02T12:05:08;1.67;;;1.67;;
9270;SDS011;4673;53.458;9.940;2023-05-02T12:10:05;1.23;;;1.23;;
9270;SDS011;4673;53.458;9.940;2023-05-02T12:12:31;1.53;;;1.53;;
9270;SDS011;4673;53.458;9.940;2023-05-02T12:14:57;1.10;;;1.10;;
9270;SDS011;4673;53.458;9.940;2023-05-02T12:17:27;1.17;;;1.17;;
9270;SDS011;4673;53.458;9.940;2023-05-02T12:19:53;1.40;;;1.40;;
9270;SDS011;4673;53.458;9.940;2023-05-02T12:22:19;1.10;;;1.10;;
9270;SDS011;4673;53.458;9.940;2023-05-02T12:24:45;1.10;;;1.10;;
9270;SDS011;4673;53.458;9.940;2023-05-02T12:27:14;1.60;;;1.60;;
9270;SDS011;4673;53.458;9.940;2023-05-02T12:29:41;1.20;;;1.20;;
9270;SDS011;4673;53.458;9.940;2023-05-02T12:32:11;1.47;;;1.47;;
9270;SDS011;4673;53.458;9.940;2023-05-02T12:34:38;1.70;;;1.70;;
9270;SDS011;4673;53.458;9.940;2023-05-02T12:37:05;1.30;;;1.30;;
9270;SDS011;4673;53.458;9.940;2023-05-02T12:39:39;1.70;;;1.70;;
9270;SDS011;4673;53.458;9.940;2023-05-02T12:42:10;1.40;;;1.40;;
9270;SDS011;4673;53.458;9.940;2023-05-02T12:44:37;1.47;;;1.47;;
9270;SDS011;4673;53.458;9.940;2023-05-02T12:47:04;1.43;;;1.43;;
9270;SDS011;4673;53.458;9.940;2023-05-02T12:49:31;1.10;;;1.10;;
9270;SDS011;4673;53.458;9.940;2023-05-02T12:51:56;1.10;;;1.10;;
9270;SDS011;4673;53.458;9.940;2023-05-02T12:54:22;1.20;;;1.20;;
9270;SDS011;4673;53.458;9.940;2023-05-02T12:56:50;1.17;;;1.17;;
9270;SDS011;4673;53.458;9.940;2023-05-02T12:59:25;1.37;;;1.37;;
9270;SDS011;4673;53.458;9.940;2023-05-02T13:01:52;1.30;;;1.30;;
9270;SDS011;4673;53.458;9.940;2023-05-02T13:04:18;0.90;;;0.90;;
9270;SDS011;4673;53.458;9.940;2023-05-02T13:06:44;1.50;;;1.50;;
9270;SDS011;4673;53.458;9.940;2023-05-02T13:09:09;1.63;;;1.63;;
9270;SDS011;4673;53.458;9.940;2023-05-02T13:11:35;1.07;;;1.07;;
9270;SDS011;4673;53.458;9.940;2023-05-02T13:14:02;0.87;;;0.87;;
9270;SDS011;4673;53.458;9.940;2023-05-02T13:16:29;1.37;;;1.37;;
9270;SDS011;4673;53.458;9.940;2023-05-02T13:18:55;1.03;;;1.03;;
9270;SDS011;4673;53.458;9.940;2023-05-02T13:21:21;1.83;;;1.83;;
9270;SDS011;4673;53.458;9.940;2023-05-02T13:23:46;0.93;;;0.93;;
9270;SDS011;4673;53.458;9.940;2023-05-02T13:26:14;1.20;;;1.20;;
9270;SDS011;4673;53.458;9.940;2023-05-02T13:28:40;1.30;;;1.30;;
9270;SDS011;4673;53.458;9.940;2023-05-02T13:31:06;1.37;;;1.37;;
9270;SDS011;4673;53.458;9.940;2023-05-02T13:33:31;1.37;;;1.37;;
9270;SDS011;4673;53.458;9.940;2023-05-02T13:35:57;1.27;;;1.27;;
9270;SDS011;4673;53.458;9.940;2023-05-02T13:38:23;1.37;;;1.37;;
9270;SDS011;4673;53.458;9.940;2023-05-02T13:40:49;1.67;;;1.67;;
9270;SDS011;4673;53.458;9.940;2023-05-02T13:43:14;1.53;;;1.53;;
9270;SDS011;4673;53.458;9.940;2023-05-02T13:45:40;0.97;;;0.97;;
9270;SDS011;4673;53.458;9.940;2023-05-02T13:48:06;1.73;;;1.73;;
9270;SDS011;4673;53.458;9.940;2023-05-02T13:50:32;1.50;;;1.50;;
9270;SDS011;4673;53.458;9.940;2023-05-02T13:53:01;1.43;;;1.43;;
9270;SDS011;4673;53.458;9.940;2023-05-02T13:55:27;1.03;;;1.03;;
9270;SDS011;4673;53.458;9.940;2023-05-02T13:57:53;1.20;;;1.20;;
9270;SDS011;4673;53.458;9.940;2023-05-02T14:00:18;1.03;;;1.03;;
9270;SDS011;4673;53.458;9.940;2023-05-02T14:02:45;0.97;;;0.97;;
9270;SDS011;4673;53.458;9.940;2023-05-02T14:05:12;1.20;;;1.20;;
9270;SDS011;4673;53.458;9.940;2023-05-02T14:07:38;0.87;;;0.87;;
9270;SDS011;4673;53.458;9.940;2023-05-02T14:10:04;0.70;;;0.70;;
9270;SDS011;4673;53.458;9.940;2023-05-02T14:12:30;1.10;;;1.10;;
9270;SDS011;4673;53.458;9.940;2023-05-02T14:14:56;0.80;;;0.80;;
9270;SDS011;4673;53.458;9.940;2023-05-02T14:17:22;0.83;;;0.83;;
9270;SDS011;4673;53.458;9.940;2023-05-02T14:19:49;0.97;;;0.97;;
9270;SDS011;4673;53.458;9.940;2023-05-02T14:22:15;1.03;;;1.03;;
9270;SDS011;4673;53.458;9.940;2023-05-02T14:24:41;0.97;;;0.97;;
9270;SDS011;4673;53.458;9.940;2023-05-02T14:27:07;1.30;;;1.30;;
9270;SDS011;4673;53.458;9.940;2023-05-02T14:29:37;1.20;;;1.20;;
9270;SDS011;4673;53.458;9.940;2023-05-02T14:32:03;0.77;;;0.77;;
9270;SDS011;4673;53.458;9.940;2023-05-02T14:34:29;2.07;;;2.07;;
9270;SDS011;4673;53.458;9.940;2023-05-02T14:36:55;0.87;;;0.87;;
9270;SDS011;4673;53.458;9.940;2023-05-02T14:39:20;1.20;;;1.20;;
9270;SDS011;4673;53.458;9.940;2023-05-02T14:41:46;0.63;;;0.63;;
9270;SDS011;4673;53.458;9.940;2023-05-02T14:44:12;1.23;;;1.23;;
9270;SDS011;4673;53.458;9.940;2023-05-02T14:46:37;1.40;;;1.40;;
9270;SDS011;4673;53.458;9.940;2023-05-02T14:49:03;1.10;;;1.10;;
9270;SDS011;4673;53.458;9.940;2023-05-02T14:51:29;1.10;;;1.10;;
9270;SDS011;4673;53.458;9.940;2023-05-02T14:53:56;0.93;;;0.93;;
9270;SDS011;4673;53.458;9.940;2023-05-02T14:56:21;2.00;;;2.00;;
9270;SDS011;4673;53.458;9.940;2023-05-02T14:58:48;1.60;;;1.60;;
9270;SDS011;4673;53.458;9.940;2023-05-02T15:01:14;1.20;;;1.20;;
9270;SDS011;4673;53.458;9.940;2023-05-02T15:03:44;0.93;;;0.93;;
9270;SDS011;4673;53.458;9.940;2023-05-02T15:06:11;1.93;;;1.93;;
9270;SDS011;4673;53.458;9.940;2023-05-02T15:08:37;1.33;;;1.33;;
9270;SDS011;4673;53.458;9.940;2023-05-02T15:11:03;1.00;;;1.00;;
9270;SDS011;4673;53.458;9.940;2023-05-02T15:13:29;0.90;;;0.90;;
9270;SDS011;4673;53.458;9.940;2023-05-02T15:15:55;1.17;;;1.17;;
9270;SDS011;4673;53.458;9.940;2023-05-02T15:18:21;1.27;;;1.27;;
9270;SDS011;4673;53.458;9.940;2023-05-02T15:20:47;1.47;;;1.47;;
9270;SDS011;4673;53.458;9.940;2023-05-02T15:23:12;1.07;;;1.07;;
9270;SDS011;4673;53.458;9.940;2023-05-02T15:25:38;1.10;;;1.10;;
9270;SDS011;4673;53.458;9.940;2023-05-02T15:28:04;1.00;;;1.00;;
9270;SDS011;4673;53.458;9.940;2023-05-02T15:30:29;1.10;;;1.10;;
9270;SDS011;4673;53.458;9.940;2023-05-02T15:32:55;0.80;;;0.80;;
9270;SDS011;4673;53.458;9.940;2023-05-02T15:35:21;1.13;;;1.13;;
9270;SDS011;4673;53.458;9.940;2023-05-02T15:37:46;1.13;;;1.13;;
9270;SDS011;4673;53.458;9.940;2023-05-02T15:40:12;1.30;;;1.30;;
9270;SDS011;4673;53.458;9.940;2023-05-02T15:42:38;0.90;;;0.90;;
9270;SDS011;4673;53.458;9.940;2023-05-02T15:45:04;1.33;;;1.33;;
9270;SDS011;4673;53.458;9.940;2023-05-02T15:47:30;0.93;;;0.93;;
9270;SDS011;4673;53.458;9.940;2023-05-02T15:49:56;1.30;;;1.30;;
9270;SDS011;4673;53.458;9.940;2023-05-02T15:52:22;1.10;;;1.10;;
9270;SDS011;4673;53.458;9.940;2023-05-02T15:54:48;1.53;;;1.53;;
9270;SDS011;4673;53.458;9.940;2023-05-02T15:57:16;1.30;;;1.30;;
9270;SDS011;4673;53.458;9.940;2023-05-02T15:59:42;1.33;;;1.33;;
9270;SDS011;4673;53.458;9.940;2023-05-02T16:02:07;1.03;;;1.03;;
9270;SDS011;4673;53.458;9.940;2023-05-02T16:04:33;1.20;;;1.20;;
9270;SDS011;4673;53.458;9.940;2023-05-02T16:06:59;1.10;;;1.10;;
9270;SDS011;4673;53.458;9.940;2023-05-02T16:09:25;0.90;;;0.90;;
9270;SDS011;4673;53.458;9.940;2023-05-02T16:11:52;1.37;;;1.37;;
9270;SDS011;4673;53.458;9.940;2023-05-02T16:14:17;1.07;;;1.07;;
9270;SDS011;4673;53.458;9.940;2023-05-02T16:16:47;1.00;;;1.00;;
9270;SDS011;4673;53.458;9.940;2023-05-02T16:19:14;1.00;;;1.00;;